Time;durP1;ratioP1;P1;durP2;ratioP2;P2;SDS_P1;SDS_P2;PMS_P1;PMS_P2;Temp;Humidity;BMP_temperature;BMP_pressure;BME280_temperature;BME280_humidity;BME280_pressure;Samples;Min_cycle;Max_cycle;Signal;HPM_P1;HPM_P2
2022/03/23 00:01:28;;;;;;;50.55;24.70;;;;;;;6.07;44.06;102689.44;5043682;28;20068;-62
2022/03/23 00:03:54;;;;;;;48.58;23.88;;;;;;;5.97;44.06;102697.63;5045368;28;20045;-62
2022/03/23 00:06:22;;;;;;;48.78;23.15;;;;;;;5.86;44.24;102691.09;5042815;28;20148;-62
2022/03/23 00:08:49;;;;;;;57.33;25.75;;;;;;;5.82;44.64;102686.66;5042590;28;20045;-62
2022/03/23 00:11:17;;;;;;;56.30;25.88;;;;;;;5.80;44.72;102688.28;5047113;28;20748;-62
2022/03/23 00:13:43;;;;;;;48.50;25.30;;;;;;;5.78;44.15;102689.91;5048186;28;20049;-62
2022/03/23 00:16:10;;;;;;;54.35;26.80;;;;;;;5.76;44.10;102691.53;5044372;28;20056;-62
2022/03/23 00:18:38;;;;;;;43.25;22.90;;;;;;;5.75;43.81;102689.78;5047947;28;20493;-62
2022/03/23 00:21:04;;;;;;;49.47;26.33;;;;;;;5.73;44.24;102681.13;5051711;28;20049;-62
2022/03/23 00:23:31;;;;;;;50.30;23.20;;;;;;;5.70;44.05;102682.72;5046583;28;20413;-62
2022/03/23 00:25:59;;;;;;;48.97;23.90;;;;;;;5.69;43.98;102677.50;5044549;28;20048;-62
2022/03/23 00:28:26;;;;;;;45.10;24.98;;;;;;;5.67;44.06;102677.44;5047161;28;20496;-62
2022/03/23 00:30:53;;;;;;;49.25;26.10;;;;;;;5.65;44.41;102673.91;5046612;28;20426;-62
2022/03/23 00:33:21;;;;;;;47.60;24.77;;;;;;;5.64;44.06;102676.44;5045384;28;20053;-62
2022/03/23 00:35:49;;;;;;;51.08;26.92;;;;;;;5.60;44.49;102667.69;5044756;28;20106;-62
2022/03/23 00:38:16;;;;;;;48.70;27.25;;;;;;;5.56;44.03;102663.25;5049121;28;20055;-62
2022/03/23 00:40:44;;;;;;;60.55;30.38;;;;;;;5.53;44.89;102663.13;5045636;28;20474;-62
2022/03/23 00:43:11;;;;;;;59.22;28.65;;;;;;;5.52;44.82;102661.34;5041544;28;20056;-61
2022/03/23 00:45:38;;;;;;;62.58;31.92;;;;;;;5.50;44.19;102652.69;5042900;28;20049;-62
2022/03/23 00:48:05;;;;;;;58.53;28.30;;;;;;;5.48;44.86;102654.31;5042520;28;20037;-61
2022/03/23 00:50:33;;;;;;;64.90;27.52;;;;;;;5.48;44.31;102651.75;5041593;28;20076;-62
2022/03/23 00:53:02;;;;;;;47.50;27.50;;;;;;;5.45;44.58;102648.16;5045045;28;20049;-62
2022/03/23 00:55:28;;;;;;;57.88;28.80;;;;;;;5.44;44.99;102649.88;5045955;28;20073;-62
2022/03/23 00:57:54;;;;;;;59.72;29.98;;;;;;;5.39;45.02;102643.66;5045171;28;20056;-62
2022/03/23 01:00:22;;;;;;;59.13;30.70;;;;;;;5.34;45.33;102645.13;5045597;28;20402;-62
2022/03/23 01:02:49;;;;;;;66.38;31.40;;;;;;;5.27;45.04;102635.41;5042200;28;20044;-62
2022/03/23 01:05:16;;;;;;;58.38;28.70;;;;;;;5.20;45.86;102641.97;5042997;28;20060;-62
2022/03/23 01:07:43;;;;;;;61.10;30.90;;;;;;;5.19;45.43;102631.59;5045906;28;20049;-61
2022/03/23 01:10:13;;;;;;;68.63;30.98;;;;;;;5.15;46.44;102632.28;5043335;28;20048;-61
2022/03/23 01:12:40;;;;;;;56.00;27.75;;;;;;;5.09;46.05;102622.59;5040618;28;20071;-61
2022/03/23 01:15:09;;;;;;;48.47;24.55;;;;;;;5.06;45.89;102623.34;5041294;28;20049;-61
2022/03/23 01:17:36;;;;;;;37.30;20.20;;;;;;;5.07;46.01;102619.97;5040135;28;20160;-61
2022/03/23 01:20:03;;;;;;;40.42;20.00;;;;;;;5.07;45.67;102619.97;5040375;28;20473;-61
2022/03/23 01:22:29;;;;;;;40.70;21.70;;;;;;;5.07;46.18;102617.38;5042785;28;20056;-61
2022/03/23 01:24:56;;;;;;;42.30;20.85;;;;;;;5.08;45.82;102616.56;5043634;28;20493;-61
2022/03/23 01:27:24;;;;;;;50.80;26.10;;;;;;;5.07;46.04;102619.97;5047527;28;20043;-61
2022/03/23 01:29:50;;;;;;;56.35;28.25;;;;;;;5.05;46.72;102621.59;5042446;28;20060;-61
2022/03/23 01:32:17;;;;;;;48.78;26.63;;;;;;;5.01;47.01;102614.56;5045173;28;20432;-62
2022/03/23 01:34:43;;;;;;;56.25;27.23;;;;;;;4.97;47.23;102612.66;5045082;28;20111;-61
2022/03/23 01:37:10;;;;;;;79.75;33.88;;;;;;;4.94;47.01;102616.78;5042285;28;20051;-61
2022/03/23 01:39:36;;;;;;;89.30;40.15;;;;;;;4.90;47.03;102609.75;5041678;28;20072;-61
2022/03/23 01:42:03;;;;;;;82.43;36.55;;;;;;;4.86;47.51;102605.28;5042295;28;20063;-62
2022/03/23 01:44:32;;;;;;;80.85;35.40;;;;;;;4.82;47.44;102609.41;5042176;28;20053;-61
2022/03/23 01:47:00;;;;;;;66.60;32.95;;;;;;;4.79;47.73;102611.84;5044693;28;20482;-62
2022/03/23 01:49:26;;;;;;;64.10;31.13;;;;;;;4.70;47.98;102614.00;5040798;28;20142;-61
2022/03/23 01:51:53;;;;;;;63.70;26.95;;;;;;;4.67;48.30;102621.53;5040843;28;20607;-62
2022/03/23 01:54:20;;;;;;;56.15;28.15;;;;;;;4.61;47.97;102621.25;5043681;28;20045;-61
2022/03/23 01:56:47;;;;;;;52.53;26.38;;;;;;;4.58;48.10;102616.00;5043126;28;20071;-61
2022/03/23 01:59:14;;;;;;;47.15;25.08;;;;;;;4.54;48.34;102614.09;5043992;28;20060;-61
2022/03/23 02:01:42;;;;;;;53.88;25.77;;;;;;;4.49;48.57;102613.00;5043960;28;20524;-62
2022/03/23 02:04:09;;;;;;;52.88;26.38;;;;;;;4.43;49.19;102611.91;5044522;28;20064;-61
2022/03/23 02:06:35;;;;;;;67.32;33.17;;;;;;;4.40;49.51;102606.63;5044030;28;20448;-61
2022/03/23 02:09:02;;;;;;;73.10;37.05;;;;;;;4.40;49.21;102609.19;5041979;28;20096;-61
2022/03/23 02:11:30;;;;;;;64.75;33.03;;;;;;;4.39;49.18;102604.88;5043288;28;20053;-61
2022/03/23 02:13:57;;;;;;;52.67;27.20;;;;;;;4.40;48.82;102606.63;5043235;28;20538;-61
2022/03/23 02:16:24;;;;;;;71.63;26.85;;;;;;;4.39;49.01;102609.13;5040978;28;20053;-61
2022/03/23 02:18:51;;;;;;;49.50;22.92;;;;;;;4.39;48.71;102602.31;5041109;28;20532;-61
2022/03/23 02:21:18;;;;;;;49.20;23.20;;;;;;;4.38;48.49;102600.56;5044390;28;20437;-61
2022/03/23 02:23:46;;;;;;;46.88;21.23;;;;;;;4.37;48.94;102600.47;5040077;28;20045;-61
2022/03/23 02:26:13;;;;;;;41.15;21.08;;;;;;;4.35;48.73;102591.81;5040560;28;20064;-62
2022/03/23 02:28:40;;;;;;;46.67;22.65;;;;;;;4.32;49.04;102591.69;5040471;28;20494;-61
2022/03/23 02:31:07;;;;;;;45.63;22.05;;;;;;;4.30;48.99;102596.75;5044782;28;20736;-61
2022/03/23 02:33:34;;;;;;;44.75;22.95;;;;;;;4.27;49.56;102594.03;5044696;28;20099;-61
2022/03/23 02:36:00;;;;;;;47.22;23.52;;;;;;;4.22;50.00;102597.19;5045251;28;20496;-62
2022/03/23 02:38:27;;;;;;;50.55;24.35;;;;;;;4.15;50.04;102597.69;5047163;28;20558;-61
2022/03/23 02:40:55;;;;;;;48.28;22.55;;;;;;;4.08;49.99;102596.53;5044032;28;20061;-61
2022/03/23 02:43:22;;;;;;;50.25;27.23;;;;;;;3.99;51.08;102599.53;5042706;28;20049;-61
2022/03/23 02:45:48;;;;;;;50.38;25.45;;;;;;;3.94;50.98;102593.31;5039767;28;20406;-61
2022/03/23 02:48:15;;;;;;;48.63;25.25;;;;;;;3.92;50.61;102589.78;5039035;28;20056;-61
2022/03/23 02:50:42;;;;;;;51.13;25.63;;;;;;;3.92;50.78;102594.91;5040474;28;20041;-61
2022/03/23 03:01:55;;;;;;;57.22;27.98;;;;;;;3.93;50.49;102595.78;5040074;28;20056;-61
2022/03/23 03:04:23;;;;;;;68.18;30.67;;;;;;;3.93;50.42;102590.66;5039905;28;20049;-61
2022/03/23 03:06:50;;;;;;;78.10;29.58;;;;;;;3.93;50.57;102585.53;5042505;28;20049;-61
2022/03/23 03:09:17;;;;;;;81.30;40.35;;;;;;;3.95;50.85;102589.03;5044046;28;20513;-61
2022/03/23 03:11:44;;;;;;;72.63;34.10;;;;;;;3.94;50.42;102582.16;5043816;28;20056;-61
2022/03/23 03:14:13;;;;;;;64.40;30.55;;;;;;;3.94;50.67;102587.28;5043970;28;20045;-61
2022/03/23 03:16:40;;;;;;;56.10;26.27;;;;;;;3.96;50.68;102590.81;5046758;28;20048;-61
2022/03/23 03:19:09;;;;;;;55.85;25.80;;;;;;;3.96;50.10;102588.25;5050123;28;20492;-61
2022/03/23 03:21:35;;;;;;;54.70;27.67;;;;;;;3.97;50.37;102587.44;5049735;28;20811;-61
2022/03/23 03:24:02;;;;;;;70.63;35.33;;;;;;;3.97;50.20;102583.19;5049384;28;20053;-61
2022/03/23 03:26:30;;;;;;;45.10;22.15;;;;;;;3.99;50.40;102575.56;5049427;28;20458;-61
2022/03/23 03:28:57;;;;;;;42.25;22.67;;;;;;;4.00;50.36;102582.44;5045426;28;20044;-61
2022/03/23 03:31:25;;;;;;;41.72;21.52;;;;;;;3.99;50.13;102581.56;5042018;28;20048;-61
2022/03/23 03:33:51;;;;;;;41.95;22.08;;;;;;;3.99;50.12;102580.69;5047187;28;20057;-61
2022/03/23 03:36:18;;;;;;;51.70;23.80;;;;;;;3.99;50.04;102580.69;5045481;28;20060;-61
2022/03/23 03:38:45;;;;;;;43.35;20.33;;;;;;;3.99;49.84;102580.69;5044987;28;20048;-61
2022/03/23 03:41:12;;;;;;;37.70;20.60;;;;;;;3.98;49.47;102589.19;5045634;28;20063;-61
2022/03/23 03:43:39;;;;;;;46.10;20.83;;;;;;;3.98;49.36;102581.50;5045828;28;20056;-61
2022/03/23 03:46:07;;;;;;;43.53;21.20;;;;;;;3.94;49.66;102588.16;5043871;28;20139;-61
2022/03/23 03:48:35;;;;;;;44.53;22.23;;;;;;;3.90;49.78;102590.50;5043394;28;20144;-61
2022/03/23 03:51:02;;;;;;;47.00;19.40;;;;;;;3.85;50.41;102585.16;5042792;28;20064;-61
2022/03/23 03:53:28;;;;;;;45.25;21.48;;;;;;;3.80;49.82;102584.94;5044406;28;20049;-61
2022/03/23 03:55:54;;;;;;;48.13;21.63;;;;;;;3.76;50.28;102583.03;5043082;28;20057;-61
2022/03/23 03:58:21;;;;;;;53.45;23.27;;;;;;;3.73;50.56;102587.13;5046639;28;20049;-61
2022/03/23 04:00:47;;;;;;;61.15;29.58;;;;;;;3.70;50.42;102581.84;5046408;28;20052;-61
2022/03/23 04:03:14;;;;;;;62.85;26.33;;;;;;;3.67;49.96;102592.84;5043658;28;20049;-61
2022/03/23 04:05:42;;;;;;;47.90;23.95;;;;;;;3.66;50.07;102592.78;5044472;28;20052;-61
2022/03/23 04:08:09;;;;;;;51.22;26.35;;;;;;;3.64;50.41;102587.56;5046601;28;20050;-61
2022/03/23 04:10:35;;;;;;;46.97;24.20;;;;;;;3.63;50.55;102590.03;5042927;28;20047;-61
2022/03/23 04:13:02;;;;;;;52.85;22.92;;;;;;;3.61;50.34;102597.66;5046119;28;20044;-61
2022/03/23 04:15:29;;;;;;;54.13;23.42;;;;;;;3.56;51.12;102593.97;5042337;28;20057;-61
2022/03/23 04:17:56;;;;;;;42.65;20.90;;;;;;;3.53;51.32;102593.81;5040810;28;20049;-61
2022/03/23 04:20:22;;;;;;;41.83;21.65;;;;;;;3.50;51.60;102598.81;5042811;28;20053;-61
2022/03/23 04:22:50;;;;;;;51.60;21.77;;;;;;;3.46;51.45;102604.59;5040907;28;20144;-61
2022/03/23 04:25:19;;;;;;;49.05;21.35;;;;;;;3.40;51.42;102606.84;5044384;28;20071;-61
2022/03/23 04:27:47;;;;;;;45.75;21.88;;;;;;;3.32;51.81;102597.88;5044853;28;20056;-61
2022/03/23 04:30:14;;;;;;;61.88;25.17;;;;;;;3.28;52.02;102596.84;5047498;28;20045;-61
2022/03/23 04:32:41;;;;;;;55.05;24.63;;;;;;;3.26;51.70;102592.44;5047132;28;20446;-61
2022/03/23 04:35:08;;;;;;;52.15;23.10;;;;;;;3.25;51.60;102595.81;5041868;28;20060;-61
2022/03/23 04:37:35;;;;;;;45.35;22.05;;;;;;;3.24;51.91;102599.19;5041982;28;20045;-61
2022/03/23 04:40:04;;;;;;;45.47;20.10;;;;;;;3.24;51.89;102594.06;5040401;28;20064;-61
2022/03/23 04:42:30;;;;;;;53.70;23.85;;;;;;;3.22;51.84;102595.66;5040960;28;20063;-61
2022/03/23 04:44:56;;;;;;;52.47;24.27;;;;;;;3.17;51.94;102593.75;5040841;28;20052;-61
2022/03/23 04:47:23;;;;;;;51.75;22.73;;;;;;;3.13;51.57;102596.94;5040730;28;20482;-60
2022/03/23 04:49:49;;;;;;;49.63;24.58;;;;;;;3.12;51.92;102599.41;5040726;28;20055;-61
2022/03/23 04:52:16;;;;;;;42.15;20.85;;;;;;;3.13;51.97;102593.50;5040917;28;20076;-61
2022/03/23 04:54:43;;;;;;;52.47;22.55;;;;;;;3.14;51.42;102598.72;5040187;28;20548;-61
2022/03/23 04:57:11;;;;;;;46.60;23.95;;;;;;;3.18;51.71;102599.75;5040307;28;20048;-61
2022/03/23 04:59:38;;;;;;;43.70;19.95;;;;;;;3.20;52.06;102602.41;5042637;28;20045;-61
2022/03/23 05:02:05;;;;;;;47.55;22.75;;;;;;;3.22;51.73;102598.22;5043401;28;20056;-61
2022/03/23 05:04:31;;;;;;;51.45;21.60;;;;;;;3.20;51.79;102597.28;5042755;28;20047;-61
2022/03/23 05:06:58;;;;;;;49.42;22.27;;;;;;;3.21;51.81;102593.91;5044186;28;20056;-61
2022/03/23 05:09:24;;;;;;;52.03;24.85;;;;;;;3.23;51.97;102599.97;5045746;28;20044;-61
2022/03/23 05:11:51;;;;;;;41.65;20.00;;;;;;;3.29;51.79;102596.03;5043885;28;20060;-61
2022/03/23 05:14:19;;;;;;;43.75;21.10;;;;;;;3.35;51.58;102596.34;5044188;28;20057;-61
2022/03/23 05:16:45;;;;;;;40.88;21.35;;;;;;;3.46;51.57;102597.78;5041148;28;20715;-61
2022/03/23 05:22:03;;;;;;;44.13;21.35;;;;;;;3.72;51.31;102585.38;5040746;28;20060;-62
2022/03/23 05:24:30;;;;;;;46.95;23.73;;;;;;;3.86;51.13;102588.59;5047475;28;20413;-60
2022/03/23 05:26:57;;;;;;;40.40;21.88;;;;;;;3.98;50.53;102584.94;5043324;28;20059;-60
2022/03/23 05:29:24;;;;;;;44.58;22.25;;;;;;;4.10;50.53;102585.53;5043346;28;20041;-60
2022/03/23 05:31:51;;;;;;;46.80;20.77;;;;;;;4.21;51.08;102586.06;5042057;28;20048;-59
2022/03/23 05:34:17;;;;;;;45.33;21.83;;;;;;;4.32;51.01;102587.44;5041575;28;20484;-59
2022/03/23 05:36:44;;;;;;;58.60;28.95;;;;;;;4.42;50.83;102584.47;5045683;28;20045;-60
2022/03/23 05:39:10;;;;;;;58.42;26.75;;;;;;;4.53;50.35;102581.50;5043638;28;20060;-60
2022/03/23 05:41:37;;;;;;;47.10;23.35;;;;;;;4.67;50.15;102586.47;5044837;28;20044;-60
2022/03/23 05:44:04;;;;;;;42.10;21.35;;;;;;;4.79;49.78;102588.72;5047498;28;20045;-60
2022/03/23 05:46:32;;;;;;;55.47;26.35;;;;;;;4.92;50.07;102593.59;5040739;28;20048;-60
2022/03/23 05:48:59;;;;;;;53.20;26.70;;;;;;;5.05;50.48;102589.88;5044777;28;20041;-60
2022/03/23 05:51:25;;;;;;;55.03;27.48;;;;;;;5.17;50.42;102589.50;5044482;28;20433;-60
2022/03/23 05:53:52;;;;;;;58.50;28.50;;;;;;;5.31;50.21;102591.88;5041396;28;20064;-62
2022/03/23 05:56:18;;;;;;;53.97;27.52;;;;;;;5.49;50.10;102594.34;5043582;28;20387;-61
2022/03/23 05:58:45;;;;;;;49.58;26.73;;;;;;;5.70;50.24;102602.06;5044368;28;20168;-61
2022/03/23 06:01:11;;;;;;;53.97;26.90;;;;;;;5.92;50.71;102596.16;5042135;28;20060;-62
2022/03/23 06:03:39;;;;;;;57.60;27.92;;;;;;;6.18;49.40;102597.19;5038965;28;20056;-62
2022/03/23 06:06:06;;;;;;;50.30;26.83;;;;;;;6.43;49.18;102586.13;5039778;28;20068;-62
2022/03/23 06:08:32;;;;;;;54.92;27.00;;;;;;;6.72;48.95;102595.81;5039819;28;20056;-62
2022/03/23 06:10:59;;;;;;;49.30;25.48;;;;;;;7.00;48.32;102591.69;5036121;28;20045;-62
2022/03/23 06:13:25;;;;;;;55.30;25.98;;;;;;;7.27;48.43;102587.50;5040305;28;20049;-62
2022/03/23 06:15:52;;;;;;;70.78;29.52;;;;;;;7.53;48.07;102586.69;5042930;28;20788;-62
2022/03/23 06:18:18;;;;;;;55.85;26.58;;;;;;;7.83;47.47;102583.38;5042452;28;20045;-62
2022/03/23 06:20:46;;;;;;;54.88;28.52;;;;;;;8.17;46.88;102588.78;5042941;28;20045;-63
2022/03/23 06:23:13;;;;;;;54.97;26.20;;;;;;;8.50;46.70;102588.09;5045548;28;20067;-62
2022/03/23 06:25:39;;;;;;;52.75;26.65;;;;;;;8.85;45.92;102595.19;5041630;28;20501;-63
2022/03/23 06:28:06;;;;;;;49.70;25.50;;;;;;;9.23;45.80;102592.75;5041783;28;20775;-62
2022/03/23 06:30:34;;;;;;;48.15;23.80;;;;;;;9.62;44.63;102592.91;5044148;28;20067;-62
2022/03/23 06:33:00;;;;;;;42.15;22.10;;;;;;;9.97;43.80;102593.78;5044326;28;20501;-62
2022/03/23 06:35:27;;;;;;;46.65;22.00;;;;;;;10.34;41.69;102594.66;5045697;28;20060;-63
2022/03/23 06:37:54;;;;;;;46.15;23.63;;;;;;;10.71;40.93;102592.00;5043193;28;20078;-63
2022/03/23 06:40:21;;;;;;;47.10;22.15;;;;;;;11.09;39.38;102591.91;5044387;28;20048;-63
2022/03/23 06:42:47;;;;;;;44.88;21.80;;;;;;;11.50;38.15;102586.59;5049150;28;20052;-63
2022/03/23 06:45:14;;;;;;;47.60;22.08;;;;;;;11.87;37.37;102586.38;5042914;28;20052;-62
2022/03/23 06:47:41;;;;;;;38.15;20.25;;;;;;;12.28;36.58;102581.81;5042858;28;20057;-62
2022/03/23 06:50:08;;;;;;;34.88;18.42;;;;;;;12.69;35.51;102588.41;5047109;28;20049;-62
2022/03/23 06:52:35;;;;;;;47.13;21.08;;;;;;;13.10;34.50;102581.09;5048013;28;20041;-62
2022/03/23 06:55:03;;;;;;;36.95;19.92;;;;;;;13.55;33.53;102581.59;5050503;28;20041;-62
2022/03/23 06:57:30;;;;;;;34.03;18.75;;;;;;;13.96;32.73;102583.63;5050434;28;20049;-62
2022/03/23 06:59:56;;;;;;;41.85;20.67;;;;;;;14.37;31.73;102586.50;5051436;28;20073;-62
2022/03/23 07:02:23;;;;;;;45.92;21.17;;;;;;;14.66;31.39;102578.00;5050711;28;20059;-62
2022/03/23 07:04:49;;;;;;;37.25;18.60;;;;;;;14.99;30.67;102585.94;5049014;28;20063;-62
2022/03/23 07:07:16;;;;;;;42.88;18.13;;;;;;;15.30;30.10;102583.41;5045196;28;20617;-63
2022/03/23 07:09:41;;;;;;;37.05;18.60;;;;;;;15.74;29.58;102583.47;5042332;28;20118;-62
2022/03/23 07:12:10;;;;;;;30.98;16.88;;;;;;;16.16;28.83;102579.94;5042818;28;20474;-62
2022/03/23 07:14:39;;;;;;;44.72;20.90;;;;;;;16.50;27.57;102587.69;5042895;28;20049;-63
2022/03/23 07:17:06;;;;;;;33.92;18.65;;;;;;;16.79;27.44;102583.25;5042975;28;20076;-62
2022/03/23 07:19:33;;;;;;;48.38;20.42;;;;;;;17.15;26.61;102581.28;5042990;28;20056;-63
2022/03/23 07:22:00;;;;;;;38.92;19.65;;;;;;;17.41;26.45;102584.63;5042587;28;20059;-63
2022/03/23 07:24:27;;;;;;;28.60;17.77;;;;;;;17.75;25.73;102587.03;5042849;28;20061;-63
2022/03/23 07:26:53;;;;;;;30.25;18.17;;;;;;;17.97;25.42;102584.16;5042976;28;20045;-63
2022/03/23 07:29:21;;;;;;;42.92;21.73;;;;;;;18.23;24.93;102583.94;5041807;28;20664;-63
2022/03/23 07:31:48;;;;;;;34.60;20.25;;;;;;;18.56;24.93;102587.91;5042463;28;20041;-63
2022/03/23 07:34:18;;;;;;;38.78;20.45;;;;;;;18.89;24.15;102586.66;5042920;28;20057;-63
2022/03/23 07:36:45;;;;;;;29.30;20.13;;;;;;;19.08;23.83;102592.50;5042427;28;20053;-63
2022/03/23 07:39:15;;;;;;;30.08;17.73;;;;;;;19.39;23.58;102585.06;5042421;28;20052;-63
2022/03/23 07:41:41;;;;;;;36.60;19.17;;;;;;;19.65;23.23;102579.38;5042175;28;20045;-63
2022/03/23 07:44:08;;;;;;;43.50;21.33;;;;;;;19.88;22.55;102586.91;5042250;28;20418;-63
2022/03/23 07:46:36;;;;;;;31.52;18.75;;;;;;;20.14;22.10;102582.00;5041643;28;20076;-63
2022/03/23 07:49:03;;;;;;;33.65;19.65;;;;;;;20.41;22.26;102577.16;5041616;28;20045;-63
2022/03/23 07:51:29;;;;;;;32.03;18.85;;;;;;;20.61;21.69;102585.50;5043720;28;20442;-63
2022/03/23 07:53:56;;;;;;;26.73;17.60;;;;;;;20.84;21.33;102581.53;5042392;28;20049;-63
2022/03/23 07:56:22;;;;;;;21.30;16.33;;;;;;;21.12;20.73;102577.38;5042185;28;20420;-63
2022/03/23 07:58:49;;;;;;;27.33;17.98;;;;;;;21.44;20.26;102573.16;5042314;28;20482;-63
2022/03/23 08:01:16;;;;;;;23.65;16.55;;;;;;;21.73;19.92;102570.63;5042457;28;20064;-63
2022/03/23 08:03:43;;;;;;;45.10;19.10;;;;;;;22.04;19.56;102579.53;5041554;28;20072;-63
2022/03/23 08:06:10;;;;;;;33.35;18.85;;;;;;;22.38;19.82;102575.97;5042613;28;20057;-63
2022/03/23 08:08:36;;;;;;;40.97;19.77;;;;;;;22.91;19.04;102578.84;5042193;28;21015;-63
2022/03/23 08:11:03;;;;;;;31.05;19.23;;;;;;;23.27;18.64;102575.00;5041604;28;20510;-63
2022/03/23 08:13:29;;;;;;;25.42;17.23;;;;;;;23.68;18.52;102575.47;5042062;28;20049;-63
2022/03/23 08:15:56;;;;;;;31.88;17.55;;;;;;;24.03;17.60;102576.91;5040889;28;20405;-63
2022/03/23 08:18:23;;;;;;;26.58;17.83;;;;;;;24.35;17.31;102583.69;5040975;28;20053;-63
2022/03/23 08:20:51;;;;;;;24.33;16.35;;;;;;;24.66;17.04;102582.56;5041033;28;20565;-63
2022/03/23 08:23:19;;;;;;;73.93;21.13;;;;;;;24.82;16.66;102583.69;5041321;28;20053;-63
2022/03/23 08:25:46;;;;;;;30.38;18.30;;;;;;;24.93;16.02;102580.63;5041429;28;20104;-63
2022/03/23 08:28:15;;;;;;;23.67;17.85;;;;;;;25.07;16.08;102581.88;5043213;28;20395;-63
2022/03/23 08:30:43;;;;;;;27.48;17.75;;;;;;;25.13;15.84;102578.97;5040665;28;20048;-63
2022/03/23 08:33:09;;;;;;;24.67;16.88;;;;;;;25.20;15.58;102578.72;5041795;28;20201;-63
2022/03/23 08:35:37;;;;;;;23.83;15.77;;;;;;;25.20;15.94;102579.56;5041845;28;20103;-63
2022/03/23 08:38:06;;;;;;;30.45;16.98;;;;;;;25.25;15.77;102584.69;5041744;28;20049;-63
2022/03/23 08:40:33;;;;;;;23.20;17.58;;;;;;;25.36;15.75;102580.66;5041364;28;20049;-63
2022/03/23 08:42:59;;;;;;;21.08;16.67;;;;;;;25.31;15.46;102576.47;5040788;28;20049;-63
2022/03/23 08:45:26;;;;;;;24.02;17.63;;;;;;;25.23;15.56;102578.59;5040154;28;20048;-63
2022/03/23 08:47:54;;;;;;;24.02;18.52;;;;;;;25.05;15.63;102570.44;5046539;28;20057;-63
2022/03/23 08:50:21;;;;;;;26.42;19.70;;;;;;;24.94;15.52;102567.31;5049246;28;20068;-63
2022/03/23 08:52:47;;;;;;;20.77;17.75;;;;;;;24.72;15.61;102571.72;5048267;28;20053;-63
2022/03/23 08:55:19;;;;;;;27.45;18.63;;;;;;;24.66;15.71;102561.34;5041325;28;20049;-63
2022/03/23 08:57:46;;;;;;;25.80;18.10;;;;;;;24.58;15.03;102563.44;5046167;28;20076;-63
2022/03/23 09:00:13;;;;;;;24.83;17.85;;;;;;;24.28;15.26;102566.31;5044508;28;20040;-63
2022/03/23 09:02:40;;;;;;;23.13;17.73;;;;;;;23.97;15.19;102565.66;5047105;28;20048;-63
2022/03/23 09:05:10;;;;;;;27.40;18.13;;;;;;;23.76;15.37;102567.25;5043709;28;20044;-62
2022/03/23 09:07:38;;;;;;;25.02;16.63;;;;;;;23.54;15.41;102561.81;5041547;28;20061;-63
2022/03/23 09:10:05;;;;;;;24.10;16.13;;;;;;;23.35;15.50;102565.97;5041300;28;20099;-62
2022/03/23 09:12:33;;;;;;;32.25;16.38;;;;;;;23.18;15.59;102559.44;5042204;28;20049;-63
2022/03/23 09:15:00;;;;;;;26.02;16.65;;;;;;;23.09;15.62;102558.88;5040925;28;20053;-63
2022/03/23 09:17:26;;;;;;;22.75;15.13;;;;;;;22.95;15.46;102561.97;5040842;28;20466;-62
2022/03/23 09:19:54;;;;;;;24.27;15.60;;;;;;;22.84;15.85;102561.41;5042427;28;20045;-63
2022/03/23 09:22:21;;;;;;;21.17;14.88;;;;;;;22.69;15.82;102568.00;5039723;28;20067;-63
2022/03/23 09:24:47;;;;;;;24.50;14.15;;;;;;;22.57;16.00;102561.28;5040845;28;20150;-63
2022/03/23 09:27:14;;;;;;;27.50;15.13;;;;;;;22.45;16.09;102564.31;5040239;28;20537;-63
2022/03/23 09:29:42;;;;;;;24.30;14.88;;;;;;;22.39;16.16;102561.84;5040567;28;20044;-63
2022/03/23 09:32:12;;;;;;;19.52;13.93;;;;;;;22.38;16.50;102560.09;5040738;28;20965;-63
2022/03/23 09:34:39;;;;;;;42.75;16.40;;;;;;;22.37;16.55;102558.34;5039640;28;20138;-63
2022/03/23 09:39:50;;;;;;;21.23;15.25;;;;;;;22.33;16.29;102557.56;5039257;28;20108;-63
2022/03/23 09:42:18;;;;;;;28.92;17.35;;;;;;;22.21;16.17;102551.78;5039972;28;20045;-62
2022/03/23 09:44:47;;;;;;;40.00;18.33;;;;;;;22.04;16.38;102558.41;5039574;28;20501;-63
2022/03/23 09:47:14;;;;;;;36.40;20.05;;;;;;;21.85;16.24;102543.03;5040028;28;20063;-62
2022/03/23 09:49:41;;;;;;;36.92;20.00;;;;;;;21.57;16.79;102542.91;5039526;28;20126;-63
2022/03/23 09:52:08;;;;;;;28.23;18.67;;;;;;;21.30;16.76;102555.00;5041045;28;20048;-62
2022/03/23 09:54:34;;;;;;;30.20;18.33;;;;;;;20.92;16.86;102550.59;5039450;28;20413;-63
2022/03/23 09:57:01;;;;;;;30.33;19.55;;;;;;;20.64;17.11;102545.94;5040321;28;20060;-63
2022/03/23 09:59:27;;;;;;;35.10;19.48;;;;;;;20.38;17.48;102545.59;5040018;28;20060;-64
2022/03/23 10:02:29;;;;;;;33.83;19.88;;;;;;;20.13;17.95;102540.78;5039842;28;20060;-64
2022/03/23 10:05:40;;;;;;;36.78;19.60;;;;;;;19.97;18.24;102544.63;5040963;28;20383;-64
2022/03/23 10:08:38;;;;;;;39.60;21.55;;;;;;;19.68;17.80;102537.25;5040240;28;20056;-64
2022/03/23 10:11:41;;;;;;;34.03;20.13;;;;;;;19.52;18.47;102541.00;5039917;28;20908;-64
2022/03/23 10:15:07;;;;;;;31.38;19.77;;;;;;;19.41;18.60;102530.66;5040193;28;20456;-64
2022/03/23 10:18:06;;;;;;;28.88;20.08;;;;;;;19.33;19.06;102529.94;5040228;28;20402;-64
2022/03/23 10:20:32;;;;;;;31.20;20.65;;;;;;;19.35;19.00;102533.41;5047079;28;20041;-64
2022/03/23 10:22:59;;;;;;;31.77;19.80;;;;;;;19.34;18.65;102526.41;5044820;28;20397;-64
2022/03/23 10:25:28;;;;;;;36.60;21.55;;;;;;;19.27;18.88;102530.03;5047177;28;20049;-64
2022/03/23 10:27:55;;;;;;;38.10;20.52;;;;;;;19.15;18.92;102532.81;5049132;28;20477;-64
2022/03/23 10:30:33;;;;;;;39.08;21.88;;;;;;;19.01;18.93;102534.81;5049281;28;20378;-64
2022/03/23 10:32:59;;;;;;;33.15;20.52;;;;;;;18.78;19.47;102535.16;5050692;28;20040;-64
2022/03/23 10:35:36;;;;;;;37.45;23.42;;;;;;;18.45;19.96;102531.16;5049422;28;20049;-64
2022/03/23 10:38:11;;;;;;;41.40;23.52;;;;;;;18.28;20.39;102532.25;5046625;28;20100;-64
2022/03/23 10:40:40;;;;;;;43.60;23.95;;;;;;;18.11;20.73;102526.28;5050887;28;20036;-64
2022/03/23 10:43:07;;;;;;;42.78;21.80;;;;;;;17.97;20.77;102525.56;5047832;28;20045;-64
2022/03/23 10:45:34;;;;;;;36.53;21.42;;;;;;;17.82;20.91;102520.50;5047149;28;20044;-63
2022/03/23 10:48:08;;;;;;;36.42;20.98;;;;;;;17.62;20.52;102521.50;5047214;28;20048;-64
2022/03/23 10:50:36;;;;;;;31.40;18.95;;;;;;;17.44;20.85;102521.69;5047417;28;20401;-63
2022/03/23 10:53:05;;;;;;;35.83;19.60;;;;;;;17.28;21.03;102525.31;5047777;28;20063;-63
2022/03/23 10:55:33;;;;;;;35.13;20.40;;;;;;;17.19;21.93;102523.63;5048379;28;20496;-63
2022/03/23 10:58:28;;;;;;;34.60;19.30;;;;;;;17.29;21.98;102521.81;5047554;28;20051;-63
2022/03/23 11:01:00;;;;;;;27.55;18.02;;;;;;;17.43;21.81;102519.94;5046338;28;20041;-63
2022/03/23 11:03:37;;;;;;;28.23;17.85;;;;;;;17.62;22.57;102521.50;5047347;28;20500;-63
2022/03/23 11:06:05;;;;;;;29.20;17.50;;;;;;;17.83;22.35;102514.38;5046875;28;20049;-63
2022/03/23 11:08:32;;;;;;;35.65;21.25;;;;;;;18.05;22.63;102515.00;5048204;28;20049;-63
2022/03/23 11:16:31;;;;;;;51.08;26.27;;;;;;;17.33;24.42;102524.38;5045612;28;20055;-64
2022/03/23 11:18:58;;;;;;;40.13;26.02;;;;;;;17.11;25.43;102516.69;5039906;28;20045;-65
2022/03/23 11:21:28;;;;;;;50.90;28.60;;;;;;;16.93;26.01;102523.78;5038997;28;20861;-65
2022/03/23 11:23:55;;;;;;;49.05;28.17;;;;;;;16.75;26.43;102523.91;5039268;28;20071;-65
2022/03/23 11:26:22;;;;;;;39.78;23.92;;;;;;;16.66;26.97;102523.97;5040025;28;20179;-65
2022/03/23 11:28:52;;;;;;;37.65;22.17;;;;;;;16.69;27.76;102516.09;5047774;28;20061;-65
2022/03/23 11:31:19;;;;;;;36.72;23.17;;;;;;;16.72;28.23;102523.94;5048918;28;20485;-64
2022/03/23 11:33:50;;;;;;;38.97;22.73;;;;;;;16.81;30.03;102523.88;5043248;28;20060;-65
2022/03/23 11:36:20;;;;;;;36.28;22.92;;;;;;;16.88;29.86;102520.34;5041652;28;20045;-65
2022/03/23 11:38:49;;;;;;;34.10;22.05;;;;;;;16.94;30.00;102525.53;5042461;28;20139;-65